Time;durP1;ratioP1;P1;durP2;ratioP2;P2;SDS_P1;SDS_P2;PMS_P1;PMS_P2;Temp;Humidity;BMP_temperature;BMP_pressure;BME280_temperature;BME280_humidity;BME280_pressure;Samples;Min_cycle;Max_cycle;Signal;HPM_P1;HPM_P2
2024/01/21 00:01:31;;;;;;;11.00;7.57;;;0.10;69.70;-2.20;97517.00;;;;5075117;28;20954;-77
2024/01/21 00:03:59;;;;;;;9.67;7.07;;;0.10;69.70;-2.30;97517.00;;;;5071942;28;20449;-77
2024/01/21 00:06:26;;;;;;;8.60;6.70;;;0.00;69.70;-2.30;97505.00;;;;5071050;28;20502;-77
2024/01/21 00:08:55;;;;;;;8.13;6.80;;;0.00;69.60;-2.20;97512.00;;;;5070128;28;20549;-77
2024/01/21 00:11:22;;;;;;;7.00;6.13;;;0.00;69.60;-2.30;97503.00;;;;5071787;28;20458;-77
2024/01/21 00:13:49;;;;;;;8.40;6.83;;;0.00;70.30;-2.30;97502.00;;;;5070787;28;20973;-77
2024/01/21 00:16:16;;;;;;;9.07;7.43;;;0.00;70.40;-2.30;97499.00;;;;5071384;28;20474;-77
2024/01/21 00:18:43;;;;;;;8.93;7.20;;;0.00;69.50;-2.30;97491.00;;;;5070202;28;21116;-76
2024/01/21 00:21:10;;;;;;;10.33;7.23;;;0.00;69.50;-2.30;97491.00;;;;5077297;28;20466;-77
2024/01/21 00:23:39;;;;;;;8.10;6.77;;;0.00;69.50;-2.30;97488.00;;;;5071480;28;20509;-77
2024/01/21 00:26:08;;;;;;;9.20;7.60;;;0.00;69.70;-2.30;97491.00;;;;5075893;28;20462;-77
2024/01/21 00:28:35;;;;;;;9.60;7.27;;;0.00;69.70;-2.30;97488.00;;;;5070748;28;20567;-77
2024/01/21 00:31:06;;;;;;;9.67;6.60;;;0.00;69.60;-2.30;97491.00;;;;5068229;28;20854;-76
2024/01/21 00:33:33;;;;;;;9.43;6.67;;;0.00;69.60;-2.30;97489.00;;;;5070700;28;20470;-76
2024/01/21 00:36:00;;;;;;;8.57;7.23;;;0.00;69.60;-2.30;97481.00;;;;5070209;28;20533;-75
2024/01/21 00:38:27;;;;;;;8.87;7.30;;;0.00;69.50;-2.40;97478.00;;;;5070875;28;20554;-76
2024/01/21 00:40:54;;;;;;;8.77;7.00;;;0.00;69.40;-2.40;97485.00;;;;5069204;28;20462;-76
2024/01/21 00:43:23;;;;;;;9.53;6.50;;;-0.10;69.30;-2.40;97487.00;;;;5067897;28;20474;-76
2024/01/21 00:45:51;;;;;;;9.50;7.20;;;-0.10;69.50;-2.40;97487.00;;;;5069973;28;20557;-76
2024/01/21 00:48:18;;;;;;;7.00;6.30;;;-0.10;69.60;-2.40;97480.00;;;;5076617;28;20442;-76
2024/01/21 00:50:45;;;;;;;7.03;6.30;;;-0.10;70.30;-2.40;97476.00;;;;5078753;28;20541;-76
2024/01/21 00:53:13;;;;;;;8.50;6.30;;;-0.10;69.60;-2.40;97476.00;;;;5060396;28;20439;-76
2024/01/21 00:55:40;;;;;;;7.57;6.37;;;-0.10;69.50;-2.40;97476.00;;;;5069712;28;20433;-76
2024/01/21 00:58:07;;;;;;;8.20;6.60;;;-0.10;69.50;-2.40;97471.00;;;;5068784;28;20955;-76
2024/01/21 01:00:36;;;;;;;9.43;6.17;;;-0.10;69.50;-2.40;97464.00;;;;5065315;28;20440;-76
2024/01/21 01:03:04;;;;;;;6.83;6.00;;;-0.10;69.60;-2.40;97460.00;;;;5069198;28;21720;-76
2024/01/21 01:05:31;;;;;;;6.70;5.90;;;-0.10;69.40;-2.50;97461.00;;;;5069570;28;20938;-76
2024/01/21 01:07:59;;;;;;;6.93;6.03;;;-0.10;69.20;-2.50;97472.00;;;;5073104;28;20525;-76
2024/01/21 01:10:26;;;;;;;8.83;6.73;;;-0.20;69.10;-2.50;97461.00;;;;5070662;28;20493;-76
2024/01/21 01:12:54;;;;;;;8.07;6.37;;;-0.20;69.30;-2.50;97464.00;;;;5070683;28;20990;-76
2024/01/21 01:15:21;;;;;;;7.47;6.73;;;-0.20;69.30;-2.50;97469.00;;;;5076819;28;21015;-76
2024/01/21 01:17:51;;;;;;;8.43;7.07;;;-0.20;69.40;-2.50;97465.00;;;;5070713;28;20481;-76
2024/01/21 01:20:18;;;;;;;8.70;6.60;;;-0.20;69.30;-2.50;97476.00;;;;5069143;28;20465;-76
2024/01/21 01:22:45;;;;;;;7.83;6.13;;;-0.20;69.40;-2.50;97471.00;;;;5070559;28;20472;-75
2024/01/21 01:25:13;;;;;;;7.27;6.37;;;-0.20;69.50;-2.50;97469.00;;;;5073907;28;21018;-76
2024/01/21 01:27:40;;;;;;;9.67;6.60;;;-0.20;69.60;-2.50;97460.00;;;;5074609;28;20499;-76
2024/01/21 01:30:09;;;;;;;8.73;6.23;;;-0.20;69.60;-2.50;97451.00;;;;5074420;28;21041;-76
2024/01/21 01:32:37;;;;;;;7.60;6.40;;;-0.20;69.60;-2.50;97451.00;;;;5073467;28;20485;-75
2024/01/21 01:35:08;;;;;;;6.90;6.20;;;-0.20;69.50;-2.50;97455.00;;;;5073355;28;20460;-76
2024/01/21 01:37:35;;;;;;;7.10;5.93;;;-0.20;69.50;-2.50;97443.00;;;;5072486;28;20457;-75
2024/01/21 01:40:03;;;;;;;7.63;6.33;;;-0.20;69.40;-2.50;97450.00;;;;5072998;28;20549;-76
2024/01/21 01:42:31;;;;;;;7.67;6.40;;;-0.20;69.30;-2.50;97456.00;;;;5072388;28;20534;-76
2024/01/21 01:44:58;;;;;;;8.60;6.13;;;-0.20;69.20;-2.50;97444.00;;;;5072219;28;20534;-76
2024/01/21 01:47:25;;;;;;;7.57;6.00;;;-0.20;69.20;-2.50;97437.00;;;;5072271;28;20560;-76
2024/01/21 01:49:55;;;;;;;9.77;6.40;;;-0.20;69.10;-2.50;97427.00;;;;5073389;28;20465;-75
2024/01/21 01:52:24;;;;;;;8.87;6.67;;;-0.20;69.20;-2.50;97423.00;;;;5073967;28;21026;-75
2024/01/21 01:54:51;;;;;;;6.70;6.00;;;-0.20;69.20;-2.60;97421.00;;;;5073976;28;20533;-76
2024/01/21 01:57:21;;;;;;;6.80;6.00;;;-0.20;69.10;-2.60;97417.00;;;;5072960;28;20541;-76
2024/01/21 01:59:49;;;;;;;7.87;6.80;;;-0.20;69.00;-2.60;97407.00;;;;5079172;28;20490;-76
2024/01/21 02:02:16;;;;;;;7.47;6.53;;;-0.30;68.80;-2.60;97413.00;;;;5075280;28;20549;-76
2024/01/21 02:04:43;;;;;;;7.63;5.73;;;-0.30;68.80;-2.70;97406.00;;;;5073465;28;20525;-75
2024/01/21 02:07:10;;;;;;;7.50;5.70;;;-0.30;68.80;-2.70;97406.00;;;;5066534;28;20462;-76
2024/01/21 02:09:39;;;;;;;7.67;6.03;;;-0.30;68.80;-2.70;97394.00;;;;5074539;28;20492;-76
2024/01/21 02:12:07;;;;;;;6.73;5.63;;;-0.40;68.80;-2.70;97395.00;;;;5073932;28;20446;-76
2024/01/21 02:14:35;;;;;;;6.73;5.50;;;-0.40;69.20;-2.80;97385.00;;;;5068836;28;20534;-75
2024/01/21 02:17:03;;;;;;;7.37;5.77;;;-0.40;69.50;-2.80;97396.00;;;;5069588;28;20481;-76
2024/01/21 02:19:31;;;;;;;5.47;4.80;;;-0.40;69.50;-2.80;97398.00;;;;5074482;28;20556;-76
2024/01/21 02:21:58;;;;;;;8.73;5.83;;;-0.40;69.30;-2.80;97397.00;;;;5074641;28;20939;-76
2024/01/21 02:24:31;;;;;;;7.03;5.27;;;-0.50;69.20;-2.80;97401.00;;;;5074512;28;20480;-75
2024/01/21 02:26:59;;;;;;;6.40;5.53;;;-0.50;69.20;-2.80;97391.00;;;;5075485;28;20480;-76
2024/01/21 02:29:27;;;;;;;7.03;5.80;;;-0.50;69.30;-2.80;97397.00;;;;5067941;28;20498;-75
2024/01/21 02:31:57;;;;;;;5.93;5.00;;;-0.50;69.40;-2.80;97392.00;;;;5065803;28;21050;-76
2024/01/21 02:34:25;;;;;;;5.40;4.60;;;-0.50;69.30;-2.80;97389.00;;;;5069685;28;20533;-76
2024/01/21 02:36:52;;;;;;;4.83;4.33;;;-0.50;69.20;-2.90;97390.00;;;;5070495;28;20446;-76
2024/01/21 02:39:19;;;;;;;5.47;4.97;;;-0.50;69.10;-2.90;97390.00;;;;5071317;28;20466;-76
2024/01/21 02:41:48;;;;;;;5.90;4.47;;;-0.50;69.20;-2.90;97384.00;;;;5071173;28;20522;-76
2024/01/21 02:44:15;;;;;;;5.83;5.13;;;-0.50;69.20;-2.90;97383.00;;;;5070305;28;20438;-76
2024/01/21 02:46:43;;;;;;;7.00;5.00;;;-0.50;69.20;-2.90;97378.00;;;;5072389;28;20501;-75
2024/01/21 02:49:10;;;;;;;5.70;4.03;;;-0.50;69.00;-2.90;97383.00;;;;5064706;28;20529;-76
2024/01/21 02:51:37;;;;;;;5.23;4.50;;;-0.50;68.80;-2.90;97381.00;;;;5072862;28;20477;-76
2024/01/21 02:54:05;;;;;;;6.40;4.30;;;-0.50;68.80;-3.00;97392.00;;;;5070934;28;20525;-76
2024/01/21 02:56:32;;;;;;;5.47;4.30;;;-0.60;68.60;-3.00;97390.00;;;;5072834;28;20545;-76
2024/01/21 02:59:00;;;;;;;4.40;4.00;;;-0.60;68.60;-3.00;97393.00;;;;5072916;28;20539;-76
2024/01/21 03:01:28;;;;;;;5.70;4.60;;;-0.60;68.60;-3.00;97387.00;;;;5071448;28;20446;-76
2024/01/21 03:03:55;;;;;;;6.53;4.50;;;-0.60;68.60;-3.00;97395.00;;;;5072779;28;20508;-76
2024/01/21 03:06:22;;;;;;;4.93;4.43;;;-0.60;68.50;-3.10;97382.00;;;;5071672;28;20497;-76
2024/01/21 03:08:50;;;;;;;4.80;4.30;;;-0.70;68.30;-3.10;97394.00;;;;5072370;28;20494;-76
2024/01/21 03:11:17;;;;;;;4.40;4.00;;;-0.70;68.30;-3.10;97382.00;;;;5072501;28;20473;-76
2024/01/21 03:13:44;;;;;;;4.60;4.03;;;-0.70;68.40;-3.20;97384.00;;;;5070906;28;20442;-76
2024/01/21 03:16:14;;;;;;;5.60;4.10;;;-0.70;68.40;-3.20;97378.00;;;;5072938;28;21010;-76
2024/01/21 03:18:41;;;;;;;5.40;4.70;;;-0.80;68.20;-3.20;97386.00;;;;5072450;28;21036;-76
2024/01/21 03:21:09;;;;;;;5.37;4.30;;;-0.80;68.20;-3.20;97383.00;;;;5072479;28;20446;-76
2024/01/21 03:23:36;;;;;;;5.90;4.67;;;-0.80;68.00;-3.30;97383.00;;;;5054373;28;20958;-75
2024/01/21 03:26:04;;;;;;;6.27;4.43;;;-0.80;67.80;-3.30;97385.00;;;;5071209;28;20987;-76
2024/01/21 03:28:31;;;;;;;4.67;4.00;;;-0.90;67.80;-3.40;97386.00;;;;5070847;28;20508;-76
2024/01/21 03:30:58;;;;;;;4.57;4.17;;;-0.90;67.80;-3.40;97378.00;;;;5070449;28;20538;-76
2024/01/21 03:33:27;;;;;;;4.93;4.47;;;-0.90;67.90;-3.40;97376.00;;;;5070382;28;20454;-76
2024/01/21 03:35:55;;;;;;;5.20;4.03;;;-1.00;67.90;-3.40;97365.00;;;;5070401;28;20553;-76
2024/01/21 03:38:22;;;;;;;5.57;4.33;;;-1.00;68.10;-3.50;97377.00;;;;5073218;28;20493;-76
2024/01/21 03:40:50;;;;;;;5.77;4.47;;;-1.00;68.10;-3.50;97368.00;;;;5070645;28;20797;-75
2024/01/21 03:43:18;;;;;;;4.40;4.00;;;-1.00;68.10;-3.50;97378.00;;;;5080620;28;20916;-76
2024/01/21 03:45:45;;;;;;;5.10;4.17;;;-1.10;68.00;-3.50;97388.00;;;;5069250;28;20438;-75
2024/01/21 03:48:12;;;;;;;4.33;3.93;;;-1.10;68.00;-3.50;97388.00;;;;5070503;28;20990;-75
2024/01/21 03:50:41;;;;;;;3.90;3.50;;;-1.10;67.90;-3.50;97386.00;;;;5070599;28;20446;-75
2024/01/21 03:53:08;;;;;;;4.60;4.00;;;-1.10;68.00;-3.50;97377.00;;;;5072240;28;20478;-76
2024/01/21 03:55:36;;;;;;;5.67;3.97;;;-1.10;68.10;-3.60;97384.00;;;;5071942;28;20517;-76
2024/01/21 03:58:03;;;;;;;4.30;3.80;;;-1.10;68.10;-3.60;97388.00;;;;5058046;28;20477;-76
2024/01/21 04:00:32;;;;;;;4.93;4.00;;;-1.10;67.90;-3.60;97383.00;;;;5068575;28;20907;-75
2024/01/21 04:02:59;;;;;;;4.87;3.90;;;-1.20;67.80;-3.60;97386.00;;;;5069240;28;20458;-75
2024/01/21 04:05:28;;;;;;;4.37;3.97;;;-1.20;68.00;-3.60;97400.00;;;;5069076;28;20533;-75
2024/01/21 04:07:59;;;;;;;5.10;4.70;;;-1.20;68.90;-3.60;97387.00;;;;5070038;28;20476;-75
2024/01/21 04:10:26;;;;;;;4.43;3.87;;;-1.20;68.30;-3.60;97388.00;;;;5067649;28;20474;-75
2024/01/21 04:12:53;;;;;;;5.30;3.83;;;-1.20;68.10;-3.60;97382.00;;;;5071334;28;20461;-75
2024/01/21 04:15:20;;;;;;;4.93;4.17;;;-1.20;68.10;-3.60;97374.00;;;;5071688;28;20478;-75
2024/01/21 04:17:48;;;;;;;4.20;3.83;;;-1.20;68.20;-3.70;97379.00;;;;5071010;28;20493;-75
2024/01/21 04:20:15;;;;;;;4.50;4.10;;;-1.20;68.00;-3.70;97373.00;;;;5070271;28;20489;-74
2024/01/21 04:22:42;;;;;;;4.30;3.83;;;-1.20;67.80;-3.70;97376.00;;;;5071145;28;20522;-75
2024/01/21 04:25:11;;;;;;;5.33;4.17;;;-1.20;67.70;-3.70;97376.00;;;;5072101;28;20438;-75
2024/01/21 04:27:38;;;;;;;4.30;3.90;;;-1.30;67.60;-3.80;97374.00;;;;5069392;28;20565;-75
2024/01/21 04:30:07;;;;;;;3.87;3.40;;;-1.30;67.60;-3.80;97382.00;;;;5065466;28;21025;-75
2024/01/21 04:32:34;;;;;;;5.90;4.47;;;-1.30;67.60;-3.80;97386.00;;;;5068585;28;20450;-75
2024/01/21 04:35:02;;;;;;;4.73;3.53;;;-1.30;67.70;-3.80;97382.00;;;;5066923;28;20484;-75
2024/01/21 04:37:29;;;;;;;3.77;3.40;;;-1.30;67.60;-3.90;97389.00;;;;5062714;28;20492;-75
2024/01/21 04:39:57;;;;;;;5.77;4.07;;;-1.40;67.50;-3.90;97378.00;;;;5062583;28;20498;-75
2024/01/21 04:42:25;;;;;;;6.03;4.10;;;-1.40;67.70;-3.90;97373.00;;;;5070140;28;20438;-75
2024/01/21 04:44:53;;;;;;;5.37;4.47;;;-1.40;67.80;-3.90;97365.00;;;;5064464;28;20443;-75
2024/01/21 04:47:20;;;;;;;4.67;4.20;;;-1.40;67.90;-3.90;97361.00;;;;5070441;28;20561;-75
2024/01/21 04:49:48;;;;;;;8.27;4.30;;;-1.40;68.00;-3.90;97361.00;;;;5069229;28;20923;-75
2024/01/21 04:52:15;;;;;;;4.37;3.97;;;-1.40;67.90;-3.90;97354.00;;;;5069708;28;21171;-75
2024/01/21 04:54:42;;;;;;;3.73;3.37;;;-1.40;67.90;-3.90;97351.00;;;;5069038;28;20945;-75
2024/01/21 04:57:09;;;;;;;3.80;3.27;;;-1.40;67.90;-3.90;97354.00;;;;5069309;28;20505;-75
2024/01/21 04:59:46;;;;;;;5.43;4.00;;;-1.40;67.90;-3.90;97354.00;;;;5072288;28;20496;-75
2024/01/21 05:02:13;;;;;;;5.27;4.03;;;-1.40;67.90;-3.90;97358.00;;;;5081375;28;20442;-75
2024/01/21 05:04:40;;;;;;;4.33;3.60;;;-1.40;68.00;-3.90;97351.00;;;;5068785;28;20542;-75
2024/01/21 05:07:08;;;;;;;5.73;4.40;;;-1.40;67.90;-3.90;97349.00;;;;5074734;28;20553;-75
2024/01/21 05:09:35;;;;;;;4.30;3.63;;;-1.40;67.90;-3.90;97360.00;;;;5074972;28;20512;-75
2024/01/21 05:12:02;;;;;;;3.63;3.33;;;-1.50;67.90;-3.90;97366.00;;;;5074256;28;20516;-75
2024/01/21 05:14:30;;;;;;;4.60;3.90;;;-1.40;68.00;-3.90;97376.00;;;;5040371;28;20532;-75
2024/01/21 05:16:58;;;;;;;6.77;4.27;;;-1.40;68.00;-3.90;97374.00;;;;5073580;28;20473;-75
2024/01/21 05:19:27;;;;;;;5.90;3.67;;;-1.50;68.00;-3.90;97365.00;;;;5073954;28;20864;-75
2024/01/21 05:21:54;;;;;;;5.50;4.53;;;-1.50;68.10;-3.90;97369.00;;;;5071462;28;20478;-75
2024/01/21 05:24:22;;;;;;;5.23;4.10;;;-1.50;68.00;-4.00;97370.00;;;;5072858;28;20503;-75
2024/01/21 05:26:49;;;;;;;4.47;4.07;;;-1.50;67.90;-4.00;97371.00;;;;5072894;28;20561;-75
2024/01/21 05:29:17;;;;;;;4.10;3.70;;;-1.50;67.90;-4.00;97372.00;;;;5072394;28;20478;-75
2024/01/21 05:31:44;;;;;;;4.83;4.17;;;-1.50;67.80;-4.00;97369.00;;;;5055136;28;20516;-75
2024/01/21 05:34:12;;;;;;;5.13;4.27;;;-1.50;67.90;-4.00;97365.00;;;;5065994;28;20517;-75
2024/01/21 05:36:39;;;;;;;4.80;4.17;;;-1.50;68.00;-4.00;97361.00;;;;5074627;28;20541;-76
2024/01/21 05:39:07;;;;;;;6.27;4.10;;;-1.50;68.00;-4.10;97363.00;;;;5073647;28;20501;-75
2024/01/21 05:41:35;;;;;;;6.13;3.83;;;-1.60;67.90;-4.10;97354.00;;;;5074746;28;20536;-75
2024/01/21 05:44:02;;;;;;;4.33;3.93;;;-1.60;67.80;-4.10;97354.00;;;;5073188;28;20438;-75
2024/01/21 05:46:29;;;;;;;5.17;4.67;;;-1.60;67.90;-4.10;97364.00;;;;5073950;28;20446;-75
2024/01/21 05:48:56;;;;;;;4.90;4.37;;;-1.60;67.80;-4.10;97369.00;;;;5073599;28;20489;-75
2024/01/21 05:51:25;;;;;;;4.83;4.33;;;-1.60;67.60;-4.10;97368.00;;;;5072977;28;20898;-75
2024/01/21 05:53:53;;;;;;;5.63;4.47;;;-1.60;67.60;-4.20;97375.00;;;;5073264;28;20470;-75
2024/01/21 05:56:19;;;;;;;4.77;4.27;;;-1.60;67.50;-4.20;97371.00;;;;5077148;28;20977;-75
2024/01/21 05:58:47;;;;;;;5.10;4.60;;;-1.70;67.60;-4.20;97373.00;;;;5074020;28;20553;-75
2024/01/21 06:01:14;;;;;;;5.70;4.27;;;-1.60;67.60;-4.20;97373.00;;;;5074046;28;20469;-75
2024/01/21 06:03:41;;;;;;;5.33;4.60;;;-1.70;67.50;-4.20;97370.00;;;;5072087;28;20454;-75
2024/01/21 06:06:08;;;;;;;7.70;5.50;;;-1.70;67.50;-4.20;97370.00;;;;5073839;28;20493;-75
2024/01/21 06:08:37;;;;;;;6.50;5.53;;;-1.70;67.60;-4.20;97372.00;;;;5073798;28;20921;-75
2024/01/21 06:11:04;;;;;;;6.43;5.43;;;-1.70;67.60;-4.30;97371.00;;;;5072064;28;20859;-75
2024/01/21 06:13:32;;;;;;;6.20;5.13;;;-1.70;67.80;-4.30;97367.00;;;;5073156;28;20501;-75
2024/01/21 06:16:00;;;;;;;8.70;6.20;;;-1.70;67.90;-4.30;97369.00;;;;5070303;28;20958;-75
2024/01/21 06:18:27;;;;;;;6.97;5.37;;;-1.70;67.90;-4.20;97363.00;;;;5071875;28;20519;-75
2024/01/21 06:20:54;;;;;;;6.90;5.57;;;-1.80;67.80;-4.20;97365.00;;;;5071587;28;20887;-75
2024/01/21 06:23:21;;;;;;;6.37;5.23;;;-1.70;67.90;-4.30;97359.00;;;;5071457;28;20935;-75
2024/01/21 06:25:50;;;;;;;6.13;5.53;;;-1.70;67.80;-4.30;97368.00;;;;5071306;28;20533;-75
2024/01/21 06:28:17;;;;;;;6.93;5.53;;;-1.70;67.70;-4.30;97369.00;;;;5071108;28;20567;-75
2024/01/21 06:30:45;;;;;;;7.97;6.27;;;-1.80;68.40;-4.30;97371.00;;;;5070991;28;20537;-75
2024/01/21 06:33:12;;;;;;;6.37;5.60;;;-1.80;67.70;-4.30;97367.00;;;;5078564;28;20465;-75
2024/01/21 06:35:39;;;;;;;8.00;6.07;;;-1.80;68.40;-4.30;97378.00;;;;5073854;28;20525;-75
2024/01/21 06:38:07;;;;;;;7.17;5.13;;;-1.80;67.60;-4.30;97382.00;;;;5078340;28;20529;-75
2024/01/21 06:40:35;;;;;;;7.67;5.53;;;-1.80;67.50;-4.30;97377.00;;;;5075422;28;20538;-75
2024/01/21 06:43:04;;;;;;;7.20;5.33;;;-1.80;67.60;-4.30;97377.00;;;;5072889;28;20507;-75
2024/01/21 06:45:31;;;;;;;6.37;5.17;;;-1.80;67.60;-4.30;97381.00;;;;5074114;28;20681;-75
2024/01/21 06:47:58;;;;;;;5.57;5.00;;;-1.80;67.70;-4.30;97394.00;;;;5075028;28;20458;-75
2024/01/21 06:50:27;;;;;;;6.60;4.90;;;-1.80;67.60;-4.30;97398.00;;;;5075350;28;20648;-75
2024/01/21 06:52:54;;;;;;;7.13;5.20;;;-1.90;67.60;-4.40;97400.00;;;;5078900;28;20946;-75
2024/01/21 06:55:21;;;;;;;6.57;5.10;;;-1.80;67.50;-4.40;97411.00;;;;5078695;28;20466;-75
2024/01/21 06:57:48;;;;;;;6.10;5.23;;;-1.90;67.30;-4.40;97404.00;;;;5072005;28;20533;-75
2024/01/21 07:00:20;;;;;;;7.50;5.63;;;-1.90;67.20;-4.40;97408.00;;;;5068112;28;20561;-75
2024/01/21 07:02:47;;;;;;;6.67;5.27;;;-1.90;67.30;-4.40;97412.00;;;;5069966;28;20527;-75
2024/01/21 07:05:14;;;;;;;8.87;6.33;;;-1.90;67.30;-4.40;97401.00;;;;5072657;28;20467;-75
2024/01/21 07:07:41;;;;;;;10.63;6.60;;;-1.90;67.40;-4.40;97401.00;;;;5073176;28;20497;-75
2024/01/21 07:10:09;;;;;;;10.50;7.03;;;-1.90;67.50;-4.40;97415.00;;;;5072422;28;20636;-75
2024/01/21 07:12:36;;;;;;;10.00;6.67;;;-1.90;67.50;-4.40;97412.00;;;;5079047;28;20851;-75
2024/01/21 07:15:04;;;;;;;7.73;6.13;;;-1.90;67.60;-4.40;97409.00;;;;5070573;28;20435;-75
2024/01/21 07:17:41;;;;;;;7.50;6.50;;;-1.90;67.70;-4.40;97410.00;;;;5070956;28;20481;-75
2024/01/21 07:20:11;;;;;;;6.93;5.77;;;-1.90;67.80;-4.40;97401.00;;;;5069468;28;20485;-75
2024/01/21 07:22:39;;;;;;;8.27;5.80;;;-1.90;67.80;-4.40;97405.00;;;;5070583;28;20439;-75
2024/01/21 07:25:07;;;;;;;6.60;5.40;;;-1.90;67.60;-4.40;97409.00;;;;5070398;28;20467;-75
2024/01/21 07:27:35;;;;;;;7.23;5.93;;;-1.90;67.70;-4.40;97408.00;;;;5071005;28;20466;-75
2024/01/21 07:30:03;;;;;;;7.07;5.63;;;-1.90;67.80;-4.40;97413.00;;;;5072393;28;20986;-76
2024/01/21 07:32:30;;;;;;;6.27;5.23;;;-1.90;67.80;-4.30;97417.00;;;;5071142;28;20492;-75
2024/01/21 07:34:59;;;;;;;6.80;5.17;;;-1.90;67.90;-4.30;97423.00;;;;5072197;28;20478;-75
2024/01/21 07:37:26;;;;;;;8.03;5.40;;;-1.80;67.90;-4.30;97438.00;;;;5071201;28;20470;-75
2024/01/21 07:39:54;;;;;;;6.80;5.60;;;-1.80;67.90;-4.30;97430.00;;;;5077869;28;21184;-75
2024/01/21 07:42:21;;;;;;;7.13;5.87;;;-1.00;68.50;-4.30;97438.00;;;;5072365;28;20530;-76
2024/01/21 07:44:50;;;;;;;6.27;5.60;;;-1.80;68.20;-4.20;97435.00;;;;5069594;28;20446;-75
2024/01/21 07:47:17;;;;;;;8.07;6.10;;;-1.70;68.40;-4.10;97438.00;;;;5064513;28;20993;-76
2024/01/21 07:49:44;;;;;;;7.63;6.17;;;-1.70;68.40;-4.10;97444.00;;;;5066241;28;20497;-76
2024/01/21 07:52:13;;;;;;;8.07;6.40;;;-1.60;68.50;-4.00;97442.00;;;;5071135;28;20449;-75
2024/01/21 07:54:40;;;;;;;10.33;6.60;;;-1.60;68.50;-4.00;97443.00;;;;5071319;28;20978;-76
2024/01/21 07:57:07;;;;;;;9.80;6.90;;;-1.50;68.50;-3.90;97449.00;;;;5072873;28;20525;-76
2024/01/21 07:59:34;;;;;;;8.70;6.50;;;-1.40;68.50;-3.90;97457.00;;;;5068220;28;20893;-75
2024/01/21 08:02:02;;;;;;;11.20;7.70;;;-1.40;68.40;-3.80;97455.00;;;;5072330;28;20450;-76
2024/01/21 08:04:30;;;;;;;9.77;7.47;;;-1.30;68.50;-3.70;97455.00;;;;5071504;28;21018;-75
2024/01/21 08:06:57;;;;;;;11.87;7.80;;;-1.30;68.40;-3.70;97451.00;;;;5076633;28;20469;-75
2024/01/21 08:09:27;;;;;;;9.70;7.47;;;-1.20;68.50;-3.70;97447.00;;;;5068976;28;20506;-75
2024/01/21 08:11:54;;;;;;;8.90;7.30;;;-1.20;68.50;-3.60;97452.00;;;;5075660;28;20447;-75
2024/01/21 08:14:21;;;;;;;12.27;8.77;;;-1.10;68.60;-3.50;97448.00;;;;5069332;28;20470;-75
2024/01/21 08:16:49;;;;;;;10.00;7.67;;;-1.10;68.70;-3.40;97453.00;;;;5068612;28;20861;-74
2024/01/21 08:19:17;;;;;;;12.00;9.43;;;-1.00;68.80;-3.40;97448.00;;;;5065696;28;20497;-75
2024/01/21 08:21:44;;;;;;;11.60;8.77;;;-0.90;69.10;-3.30;97451.00;;;;5067206;28;20835;-76
2024/01/21 08:24:11;;;;;;;10.90;7.97;;;-0.90;69.10;-3.20;97448.00;;;;5068196;28;20952;-75
2024/01/21 08:26:40;;;;;;;10.50;7.53;;;-0.80;69.40;-3.10;97456.00;;;;5065879;28;20808;-76
2024/01/21 08:29:07;;;;;;;11.57;8.17;;;-0.70;69.60;-3.00;97465.00;;;;5067984;28;20553;-75
2024/01/21 08:31:34;;;;;;;10.33;7.77;;;-0.60;69.70;-2.90;97469.00;;;;5070708;28;20442;-75
2024/01/21 08:34:02;;;;;;;11.30;8.53;;;-0.50;69.90;-2.80;97471.00;;;;5070223;28;20858;-76
2024/01/21 08:36:29;;;;;;;14.97;9.93;;;-0.50;70.00;-2.60;97467.00;;;;5071845;28;20958;-76
2024/01/21 08:38:57;;;;;;;13.03;9.07;;;-0.40;70.90;-2.50;97464.00;;;;5069467;28;20469;-76
2024/01/21 08:41:24;;;;;;;13.07;9.03;;;-0.30;70.30;-2.40;97462.00;;;;5072420;28;20731;-76
2024/01/21 08:43:53;;;;;;;10.50;8.13;;;-0.20;70.40;-2.30;97464.00;;;;5070527;28;20489;-76
2024/01/21 08:46:20;;;;;;;10.40;7.90;;;-0.10;70.60;-2.10;97468.00;;;;5068169;28;20466;-76
2024/01/21 08:48:47;;;;;;;11.53;7.43;;;0.00;70.60;-2.00;97469.00;;;;5074437;28;20572;-77
2024/01/21 08:51:14;;;;;;;9.33;7.43;;;0.20;70.70;-1.90;97475.00;;;;5076446;28;20489;-76
2024/01/21 08:53:46;;;;;;;8.67;6.60;;;0.20;70.80;-1.80;97474.00;;;;5075674;28;20535;-76
2024/01/21 08:56:15;;;;;;;8.80;5.90;;;0.40;70.80;-1.70;97482.00;;;;5076369;28;20508;-77
2024/01/21 08:58:42;;;;;;;6.27;5.67;;;0.50;70.80;-1.60;97478.00;;;;5074271;28;21055;-76
2024/01/21 09:01:11;;;;;;;5.70;4.93;;;0.60;70.70;-1.40;97481.00;;;;5074115;28;20625;-76
2024/01/21 09:03:38;;;;;;;6.93;5.27;;;0.80;70.50;-1.30;97475.00;;;;5070487;28;20450;-76
2024/01/21 09:06:06;;;;;;;5.73;4.83;;;0.90;71.20;-1.20;97490.00;;;;5051393;28;20455;-77
2024/01/21 09:08:33;;;;;;;5.93;4.70;;;1.00;70.40;-1.10;97491.00;;;;5069693;28;20485;-76
2024/01/21 09:11:00;;;;;;;5.93;5.03;;;1.10;70.40;-0.90;97499.00;;;;5069482;28;20525;-76
2024/01/21 09:13:27;;;;;;;5.57;4.70;;;1.30;70.70;-0.70;97494.00;;;;5069674;28;20534;-77
2024/01/21 09:15:55;;;;;;;6.47;5.43;;;1.40;70.60;-0.60;97500.00;;;;5067500;28;20478;-77
2024/01/21 09:18:23;;;;;;;8.03;5.10;;;1.50;70.50;-0.50;97495.00;;;;5069845;28;20889;-77
2024/01/21 09:20:51;;;;;;;5.90;5.30;;;1.70;70.30;-0.40;97500.00;;;;5074970;28;20480;-77
2024/01/21 09:23:18;;;;;;;8.40;5.97;;;1.80;70.50;-0.30;97510.00;;;;5070366;28;20525;-77
2024/01/21 09:25:45;;;;;;;6.60;6.00;;;1.90;70.30;-0.10;97511.00;;;;5069642;28;20469;-77
2024/01/21 09:28:12;;;;;;;6.57;5.40;;;2.10;70.00;-0.10;97504.00;;;;5067529;28;20474;-77
2024/01/21 09:30:41;;;;;;;7.20;5.93;;;2.20;69.80;0.00;97509.00;;;;5070910;28;20865;-77
2024/01/21 09:33:08;;;;;;;6.03;5.43;;;2.30;69.60;0.10;97509.00;;;;5070120;28;20442;-77
2024/01/21 09:35:37;;;;;;;6.67;5.77;;;2.40;69.50;0.20;97502.00;;;;5064924;28;20877;-77
2024/01/21 09:38:05;;;;;;;6.17;5.50;;;2.40;69.20;0.30;97503.00;;;;5069099;28;20966;-77
2024/01/21 09:40:32;;;;;;;6.20;5.60;;;2.50;69.30;0.40;97509.00;;;;5070636;28;20442;-77
2024/01/21 09:43:00;;;;;;;6.17;5.60;;;2.60;69.50;0.50;97503.00;;;;5070545;28;20959;-77
2024/01/21 09:45:32;;;;;;;6.20;5.60;;;2.70;69.80;0.60;97498.00;;;;5074287;28;20499;-78
2024/01/21 09:48:00;;;;;;;6.83;5.40;;;2.80;69.90;0.70;97510.00;;;;5073237;28;20954;-78
2024/01/21 09:50:30;;;;;;;8.97;6.33;;;2.90;70.00;0.90;97512.00;;;;5073964;28;20490;-78
2024/01/21 09:53:01;;;;;;;6.77;6.10;;;3.10;70.10;1.00;97512.00;;;;5072452;28;20434;-77
2024/01/21 09:55:28;;;;;;;8.43;5.83;;;3.20;70.00;1.20;97516.00;;;;5073061;28;20461;-78
2024/01/21 09:57:59;;;;;;;7.30;6.50;;;3.40;70.20;1.40;97525.00;;;;5073741;28;20442;-78
2024/01/21 10:00:27;;;;;;;7.03;5.60;;;3.50;70.40;1.60;97511.00;;;;5076324;28;20604;-79
2024/01/21 10:02:56;;;;;;;9.77;6.00;;;3.70;70.30;1.80;97524.00;;;;5077938;28;20200;-79
2024/01/21 10:05:26;;;;;;;6.73;5.47;;;4.10;70.60;2.00;97526.00;;;;5074179;28;20199;-79
2024/01/21 10:07:54;;;;;;;6.00;5.43;;;3.70;70.30;2.10;97532.00;;;;5074188;28;20192;-80
2024/01/21 10:10:29;;;;;;;7.57;4.67;;;4.80;70.80;2.30;97522.00;;;;5074497;28;20212;-80
2024/01/21 10:12:56;;;;;;;5.50;4.70;;;4.40;69.70;2.50;97515.00;;;;5072502;28;20219;-80
2024/01/21 10:15:24;;;;;;;5.40;4.87;;;4.50;69.80;2.70;97523.00;;;;5074967;28;20187;-80
2024/01/21 10:17:52;;;;;;;9.33;6.83;;;4.70;69.80;2.90;97511.00;;;;5074584;28;20661;-81
2024/01/21 10:20:20;;;;;;;8.50;6.53;;;4.90;70.00;3.10;97504.00;;;;5057869;28;20583;-80
2024/01/21 10:22:48;;;;;;;7.03;5.50;;;5.00;70.20;3.20;97501.00;;;;5075023;28;20242;-80
2024/01/21 10:25:16;;;;;;;5.03;4.30;;;5.20;70.30;3.40;97509.00;;;;5076680;28;20184;-81
2024/01/21 10:27:53;;;;;;;4.43;4.03;;;5.40;70.60;3.60;97503.00;;;;5079160;28;20653;-82
2024/01/21 10:30:20;;;;;;;4.87;4.30;;;5.50;70.10;3.80;97512.00;;;;5070739;28;20578;-81
2024/01/21 10:32:47;;;;;;;6.93;5.90;;;5.70;70.70;4.00;97512.00;;;;5078288;28;20562;-82
2024/01/21 10:35:15;;;;;;;7.63;5.27;;;5.90;70.50;4.10;97516.00;;;;5078216;28;20667;-82
2024/01/21 10:37:43;;;;;;;4.57;3.20;;;6.00;70.00;4.20;97532.00;;;;5075476;28;20192;-81
2024/01/21 10:40:11;;;;;;;4.47;3.20;;;6.10;69.70;4.40;97528.00;;;;5082794;28;20223;-82
2024/01/21 10:42:41;;;;;;;3.63;3.10;;;6.20;69.40;4.50;97525.00;;;;5081512;28;20199;-82
2024/01/21 10:45:12;;;;;;;5.33;3.37;;;6.40;69.40;4.60;97530.00;;;;5079989;28;20188;-81
2024/01/21 10:47:43;;;;;;;3.17;2.90;;;6.40;69.00;4.60;97535.00;;;;5079786;28;20219;-81
2024/01/21 10:50:12;;;;;;;2.77;2.40;;;6.50;68.50;4.70;97539.00;;;;5077212;28;20220;-82
2024/01/21 10:52:45;;;;;;;3.03;2.77;;;6.60;68.00;4.70;97529.00;;;;5077718;28;20238;-82
2024/01/21 10:55:13;;;;;;;3.07;2.60;;;6.60;67.30;4.70;97534.00;;;;5074682;28;20204;-81
2024/01/21 10:57:42;;;;;;;3.60;2.77;;;6.60;67.20;4.70;97535.00;;;;5077821;28;20395;-81
2024/01/21 11:00:12;;;;;;;3.00;2.80;;;6.60;66.70;4.70;97546.00;;;;5076722;28;20212;-81